Time;durP1;ratioP1;P1;durP2;ratioP2;P2;SDS_P1;SDS_P2;PMS_P1;PMS_P2;Temp;Humidity;BMP_temperature;BMP_pressure;BME280_temperature;BME280_humidity;BME280_pressure;Samples;Min_cycle;Max_cycle;Signal;HPM_P1;HPM_P2
2023/05/02 00:01:12;;;;;;;9.07;4.85;;;;;;;10.93;55.06;100703.53;4914340;29;20514;-70
2023/05/02 00:03:39;;;;;;;9.55;4.75;;;;;;;10.89;54.90;100708.38;4931745;29;20052;-70
2023/05/02 00:06:05;;;;;;;10.63;5.00;;;;;;;10.90;54.50;100698.50;4929929;29;20048;-70
2023/05/02 00:08:32;;;;;;;12.95;5.00;;;;;;;10.88;54.00;100704.00;4914278;29;20116;-71
2023/05/02 00:10:58;;;;;;;11.05;5.20;;;;;;;10.88;53.96;100709.38;4929665;29;20493;-70
2023/05/02 00:13:25;;;;;;;11.15;4.13;;;;;;;10.86;54.63;100710.53;4922511;29;20058;-70
2023/05/02 00:15:51;;;;;;;9.27;4.70;;;;;;;10.80;54.70;100708.53;4929760;29;20074;-72
2023/05/02 00:18:18;;;;;;;8.80;4.32;;;;;;;10.79;54.73;100710.38;4931314;29;20468;-70
2023/05/02 00:20:45;;;;;;;10.65;4.82;;;;;;;10.66;54.87;100701.94;4931312;29;20058;-70
2023/05/02 00:23:12;;;;;;;10.68;5.30;;;;;;;10.73;54.16;100708.31;4932178;29;20079;-70
2023/05/02 00:25:44;;;;;;;10.80;4.53;;;;;;;10.66;54.53;100707.28;4930928;29;20111;-71
2023/05/02 00:28:10;;;;;;;19.23;5.00;;;;;;;10.71;54.18;100707.63;4931616;29;20059;-71
2023/05/02 00:30:42;;;;;;;10.02;5.05;;;;;;;10.66;54.45;100704.63;4928122;29;20043;-70
2023/05/02 00:33:09;;;;;;;;;;;;;;;10.63;54.65;100700.41;4937767;29;20052;-70
2023/05/02 00:35:36;;;;;;;7.97;4.07;;;;;;;10.69;54.61;100701.59;4937136;29;19911;-70
2023/05/02 00:38:02;;;;;;;7.55;4.35;;;;;;;10.64;54.98;100709.28;4936708;29;20067;-71
2023/05/02 00:40:29;;;;;;;10.13;4.95;;;;;;;10.61;55.54;100709.59;4913953;29;20107;-71
2023/05/02 00:42:55;;;;;;;10.55;5.13;;;;;;;10.48;55.93;100700.13;4930685;29;20067;-70
2023/05/02 00:45:22;;;;;;;14.23;4.05;;;;;;;10.54;55.75;100703.19;4929887;29;20131;-70
2023/05/02 00:47:49;;;;;;;11.00;4.57;;;;;;;10.49;56.32;100699.13;4930858;29;20048;-70
2023/05/02 00:50:16;;;;;;;8.23;4.63;;;;;;;10.48;56.45;100699.31;4930157;29;20048;-70
2023/05/02 00:52:44;;;;;;;12.10;4.63;;;;;;;10.45;56.72;100696.94;4929913;29;20080;-70
2023/05/02 00:55:10;;;;;;;8.38;4.68;;;;;;;10.46;57.42;100696.75;4931298;29;20075;-71
2023/05/02 00:57:37;;;;;;;8.05;4.50;;;;;;;10.41;57.64;100707.16;4920449;29;20048;-70
2023/05/02 01:00:05;;;;;;;12.73;4.40;;;;;;;10.43;58.18;100702.44;4929562;29;20060;-71
2023/05/02 01:02:52;;;;;;;12.52;5.22;;;;;;;10.38;58.84;100699.41;4929334;29;20145;-70
2023/05/02 01:09:16;;;;;;;9.63;4.80;;;;;;;10.25;59.53;100694.47;4930098;29;20121;-71
2023/05/02 01:11:51;;;;;;;13.57;5.15;;;;;;;10.26;60.06;100706.03;4927517;29;20059;-69
2023/05/02 01:14:20;;;;;;;8.35;4.30;;;;;;;10.28;60.31;100704.88;4920510;29;20048;-70
2023/05/02 01:16:48;;;;;;;14.48;4.93;;;;;;;10.27;60.48;100708.56;4929208;29;20050;-70
2023/05/02 01:19:25;;;;;;;11.88;4.30;;;;;;;10.27;60.72;100711.25;4928792;29;20048;-68
2023/05/02 01:21:53;;;;;;;11.07;4.45;;;;;;;10.27;61.13;100702.38;4928719;29;20048;-70
2023/05/02 01:24:31;;;;;;;9.98;5.10;;;;;;;10.20;61.44;100707.53;4929422;29;20520;-70
2023/05/02 01:27:10;;;;;;;12.57;5.10;;;;;;;10.22;62.01;100707.34;4928672;29;20043;-71
2023/05/02 01:29:39;;;;;;;11.77;4.93;;;;;;;10.20;62.81;100712.03;4929736;29;20063;-70
2023/05/02 01:32:07;;;;;;;14.93;4.60;;;;;;;10.12;63.19;100709.31;4928151;29;20501;-70
2023/05/02 01:34:37;;;;;;;8.75;4.72;;;;;;;10.12;64.06;100712.81;4929687;29;20088;-70
2023/05/02 01:37:05;;;;;;;10.20;5.05;;;;;;;10.11;64.36;100719.19;4929604;29;20636;-70
2023/05/02 01:39:33;;;;;;;11.32;5.28;;;;;;;10.12;64.54;100720.03;4929684;29;20111;-70
2023/05/02 01:42:02;;;;;;;13.90;5.05;;;;;;;9.99;65.97;100717.75;4929565;29;20115;-71
2023/05/02 01:44:31;;;;;;;10.85;5.20;;;;;;;9.91;67.20;100733.78;4929503;29;20048;-70
2023/05/02 01:47:01;;;;;;;15.48;5.03;;;;;;;9.98;67.65;100734.84;4930045;29;20072;-70
2023/05/02 01:49:28;;;;;;;11.20;4.80;;;;;;;10.02;67.36;100737.03;4929001;29;20048;-71
2023/05/02 01:51:56;;;;;;;10.30;4.97;;;;;;;9.99;68.23;100728.47;4930325;29;20490;-71
2023/05/02 01:54:25;;;;;;;10.43;4.82;;;;;;;9.96;69.22;100732.31;4928649;29;20063;-70
2023/05/02 01:56:52;;;;;;;9.68;4.85;;;;;;;9.94;70.48;100739.66;4928995;29;20072;-71
2023/05/02 01:59:21;;;;;;;10.57;5.28;;;;;;;9.91;71.92;100731.94;4928068;29;20080;-70
2023/05/02 02:01:50;;;;;;;14.00;4.97;;;;;;;9.92;72.87;100730.94;4928017;29;20067;-70
2023/05/02 02:04:18;;;;;;;9.38;5.20;;;;;;;9.93;73.99;100740.69;4918499;29;20047;-70
2023/05/02 02:06:50;;;;;;;12.23;4.72;;;;;;;9.92;75.73;100730.09;4928131;29;20108;-70
2023/05/02 02:09:17;;;;;;;10.27;4.40;;;;;;;9.87;77.69;100745.81;4928527;29;20055;-69
2023/05/02 02:12:02;;;;;;;13.57;5.45;;;;;;;9.88;79.26;100742.97;4927450;29;20051;-70
2023/05/02 02:14:37;;;;;;;11.45;4.28;;;;;;;9.82;81.10;100746.28;4934285;29;20040;-70
2023/05/02 02:17:25;;;;;;;15.32;5.10;;;;;;;9.81;83.02;100747.25;4936332;29;20071;-69
2023/05/02 02:19:54;;;;;;;8.80;4.22;;;;;;;9.65;86.73;100749.81;4937140;29;20115;-70
2023/05/02 02:22:25;;;;;;;7.75;4.20;;;;;;;9.61;88.70;100751.94;4936790;29;20052;-70
2023/05/02 02:24:52;;;;;;;6.78;4.10;;;;;;;9.70;89.85;100760.91;4936753;29;20032;-69
2023/05/02 02:32:50;;;;;;;10.93;4.18;;;;;;;9.47;97.84;100772.06;5717695;23;20032;-70
2023/05/02 02:38:21;;;;;;;10.48;4.30;;;;;;;9.43;98.95;100778.72;5227392;23;20095;-69
2023/05/02 02:40:56;;;;;;;14.30;4.35;;;;;;;9.34;100.00;100785.00;4942698;29;20083;-70
2023/05/02 02:43:32;;;;;;;9.70;4.78;;;;;;;9.31;100.00;100787.97;4943074;29;20046;-69
2023/05/02 02:46:10;;;;;;;14.48;4.32;;;;;;;9.28;100.00;100780.22;4942695;29;20067;-70
2023/05/02 02:49:03;;;;;;;11.32;4.22;;;;;;;9.21;100.00;100796.00;4943371;29;20059;-69
2023/05/02 02:51:43;;;;;;;10.57;4.45;;;;;;;9.21;100.00;100789.81;4906290;29;20512;-66
2023/05/02 02:54:22;;;;;;;9.68;3.83;;;;;;;9.18;100.00;100790.13;4902672;29;20059;-67
2023/05/02 02:57:03;;;;;;;7.35;4.15;;;;;;;9.10;100.00;100798.91;4918997;29;20055;-68
2023/05/02 02:59:37;;;;;;;8.55;4.13;;;;;;;9.15;100.00;100811.81;4902900;29;20060;-66
2023/05/02 03:02:11;;;;;;;9.02;4.38;;;;;;;9.08;100.00;100817.75;4923845;29;20047;-67
2023/05/02 03:04:43;;;;;;;8.68;4.20;;;;;;;9.05;100.00;100828.75;4938339;29;20058;-68
2023/05/02 03:07:10;;;;;;;12.23;4.70;;;;;;;9.04;100.00;100837.78;4937878;29;20063;-66
2023/05/02 03:09:44;;;;;;;6.65;4.05;;;;;;;8.88;100.00;100837.56;4937878;29;20044;-66
2023/05/02 03:12:11;;;;;;;8.80;4.35;;;;;;;8.95;100.00;100841.34;4938242;29;20051;-65
2023/05/02 03:14:39;;;;;;;11.05;4.78;;;;;;;8.95;100.00;100849.34;4938653;29;20044;-67
2023/05/02 03:17:09;;;;;;;9.20;4.40;;;;;;;8.95;100.00;100848.53;4938059;29;20049;-67
2023/05/02 03:19:36;;;;;;;11.13;3.97;;;;;;;8.98;100.00;100850.91;4938763;29;20048;-68
2023/05/02 03:22:03;;;;;;;10.07;4.35;;;;;;;8.62;100.00;100858.78;4939201;29;20048;-67
2023/05/02 03:24:30;;;;;;;12.88;4.78;;;;;;;8.80;100.00;100864.22;4938906;29;20052;-67
2023/05/02 03:26:58;;;;;;;8.27;4.07;;;;;;;8.76;100.00;100871.69;4938598;29;20135;-67
2023/05/02 03:29:25;;;;;;;9.52;4.75;;;;;;;8.83;100.00;100872.78;4938072;29;20047;-67
2023/05/02 03:31:52;;;;;;;9.38;4.70;;;;;;;8.82;100.00;100862.25;4920377;29;20056;-66
2023/05/02 03:34:20;;;;;;;12.00;5.13;;;;;;;8.77;100.00;100868.00;4919289;29;20136;-66
2023/05/02 03:36:47;;;;;;;14.55;6.22;;;;;;;8.57;100.00;100864.56;4902052;29;20501;-67
2023/05/02 03:39:14;;;;;;;10.05;4.80;;;;;;;8.72;100.00;100866.78;4918973;29;20068;-66
2023/05/02 03:41:41;;;;;;;10.77;4.28;;;;;;;8.64;100.00;100866.63;4919095;29;20063;-67
2023/05/02 03:44:07;;;;;;;8.50;4.20;;;;;;;8.61;100.00;100868.63;4918371;29;20104;-67
2023/05/02 03:46:34;;;;;;;11.18;4.57;;;;;;;8.56;100.00;100876.22;4916118;29;20086;-67
2023/05/02 03:49:00;;;;;;;9.65;4.30;;;;;;;8.66;100.00;100878.88;4900157;29;20052;-66
2023/05/02 03:51:27;;;;;;;11.82;4.70;;;;;;;8.58;100.00;100879.59;4916148;29;20485;-67
2023/05/02 03:53:53;;;;;;;11.55;4.65;;;;;;;8.55;100.00;100889.75;4910558;29;20417;-67
2023/05/02 03:56:20;;;;;;;11.95;4.53;;;;;;;8.60;100.00;100895.50;4916031;29;20076;-68
2023/05/02 03:58:47;;;;;;;11.00;4.65;;;;;;;8.52;100.00;100892.69;4915759;29;20054;-67
2023/05/02 04:01:15;;;;;;;9.10;4.22;;;;;;;8.61;100.00;100892.69;4915672;29;20051;-66
2023/05/02 04:03:42;;;;;;;8.90;4.20;;;;;;;8.47;100.00;100903.84;4898480;29;20123;-68
2023/05/02 04:06:08;;;;;;;11.88;4.55;;;;;;;8.33;100.00;100914.94;4915474;29;20115;-66
2023/05/02 04:08:35;;;;;;;8.40;3.83;;;;;;;8.47;100.00;100914.53;4911865;29;20044;-67
2023/05/02 04:11:02;;;;;;;10.73;4.38;;;;;;;8.42;100.00;100919.44;4915120;29;20044;-65
2023/05/02 04:13:28;;;;;;;6.35;3.83;;;;;;;8.50;100.00;100914.22;4914618;29;20425;-66
2023/05/02 04:15:55;;;;;;;8.25;4.00;;;;;;;8.49;100.00;100917.88;4915406;29;20058;-67
2023/05/02 04:18:22;;;;;;;7.28;3.83;;;;;;;8.42;100.00;100910.59;4914225;29;20047;-66
2023/05/02 04:20:49;;;;;;;14.10;4.72;;;;;;;8.45;100.00;100915.66;4919364;29;20052;-69
2023/05/02 04:23:16;;;;;;;8.20;3.65;;;;;;;8.48;100.00;100931.41;4935107;29;20068;-70
2023/05/02 04:25:55;;;;;;;11.20;3.58;;;;;;;8.48;100.00;100934.94;4935577;29;20045;-69
2023/05/02 04:28:21;;;;;;;6.82;3.28;;;;;;;8.54;100.00;100938.88;4933828;29;20047;-67
2023/05/02 04:30:49;;;;;;;8.95;3.70;;;;;;;8.44;100.00;100941.56;4898206;29;20056;-66
2023/05/02 04:33:17;;;;;;;6.93;3.63;;;;;;;8.50;100.00;100935.59;4914351;29;20074;-66
2023/05/02 04:35:43;;;;;;;9.75;3.17;;;;;;;8.59;100.00;100934.78;4925654;29;20075;-70
2023/05/02 04:38:10;;;;;;;17.75;5.45;;;;;;;8.53;100.00;100935.34;4935941;29;20059;-69
2023/05/02 04:40:37;;;;;;;16.10;4.70;;;;;;;8.65;100.00;100937.88;4938795;29;20059;-70
2023/05/02 04:43:03;;;;;;;16.08;4.15;;;;;;;8.68;100.00;100948.25;4936791;29;20079;-69
2023/05/02 04:45:30;;;;;;;15.88;3.67;;;;;;;8.78;100.00;100955.31;4936968;29;20120;-70
2023/05/02 04:47:57;;;;;;;10.98;3.80;;;;;;;8.86;100.00;100951.94;4937425;29;20052;-69
2023/05/02 04:50:23;;;;;;;17.77;4.13;;;;;;;8.95;100.00;100950.19;4934485;29;20048;-70
2023/05/02 04:52:50;;;;;;;20.63;3.75;;;;;;;8.83;100.00;100961.06;4934493;29;20060;-70
2023/05/02 04:55:16;;;;;;;6.82;3.22;;;;;;;8.89;100.00;100967.69;4923762;29;20072;-69
2023/05/02 04:57:43;;;;;;;13.68;3.50;;;;;;;8.80;100.00;100979.25;4932681;29;20044;-70
2023/05/02 05:00:10;;;;;;;8.15;3.75;;;;;;;8.76;100.00;100977.84;4935534;29;20112;-70
2023/05/02 05:02:38;;;;;;;12.93;3.40;;;;;;;8.81;100.00;100988.94;4935012;29;20052;-70
2023/05/02 05:05:05;;;;;;;9.48;3.20;;;;;;;8.66;100.00;100987.69;4933398;29;20063;-69
2023/05/02 05:07:31;;;;;;;12.73;4.32;;;;;;;8.72;100.00;100989.81;4932179;29;20058;-70
2023/05/02 05:09:58;;;;;;;13.80;4.10;;;;;;;8.66;100.00;100985.03;4917788;29;20060;-69
2023/05/02 05:12:25;;;;;;;9.85;4.10;;;;;;;8.77;100.00;100990.22;4933030;29;20051;-69
2023/05/02 05:14:51;;;;;;;10.70;3.47;;;;;;;8.78;100.00;101002.59;4929863;29;20068;-69
2023/05/02 05:17:18;;;;;;;8.98;3.58;;;;;;;8.78;100.00;101002.59;4930405;29;20063;-69
2023/05/02 05:19:45;;;;;;;8.57;3.17;;;;;;;8.52;100.00;101000.50;4920925;29;20052;-71
2023/05/02 05:22:12;;;;;;;11.40;3.67;;;;;;;8.55;100.00;101008.25;4928423;29;20058;-72
2023/05/02 05:24:38;;;;;;;12.00;4.35;;;;;;;8.65;100.00;101016.28;4928665;29;20104;-72
2023/05/02 05:27:05;;;;;;;18.85;5.80;;;;;;;8.58;100.00;101013.31;4929898;29;20052;-72
2023/05/02 05:29:32;;;;;;;10.98;4.03;;;;;;;8.65;100.00;101018.13;4918241;29;20048;-72
2023/05/02 05:31:58;;;;;;;7.85;4.03;;;;;;;8.75;100.00;101027.81;4926554;29;20216;-72
2023/05/02 05:34:25;;;;;;;9.60;4.43;;;;;;;8.92;100.00;101034.31;4930819;29;20099;-72
2023/05/02 05:36:52;;;;;;;7.25;3.80;;;;;;;8.97;100.00;101036.53;4934123;29;20056;-71
2023/05/02 05:39:19;;;;;;;16.52;4.68;;;;;;;9.09;100.00;101030.91;4933586;29;20047;-71
2023/05/02 05:41:46;;;;;;;22.33;6.13;;;;;;;9.26;100.00;101039.19;4934087;29;20047;-71
2023/05/02 05:44:13;;;;;;;10.05;4.22;;;;;;;9.26;100.00;101040.03;4934847;29;20051;-71
2023/05/02 05:46:39;;;;;;;8.68;4.28;;;;;;;9.26;100.00;101047.22;4934825;29;20056;-71
2023/05/02 05:49:06;;;;;;;10.25;4.18;;;;;;;9.32;100.00;101055.53;4919922;29;20059;-72
2023/05/02 05:51:36;;;;;;;9.18;4.57;;;;;;;9.32;100.00;101055.53;4935123;29;20100;-72
2023/05/02 05:54:03;;;;;;;16.13;5.00;;;;;;;9.40;100.00;101062.84;4934182;29;20072;-71
2023/05/02 05:56:29;;;;;;;13.27;6.45;;;;;;;9.38;100.00;101054.13;4933155;29;20067;-71
2023/05/02 05:58:56;;;;;;;9.50;5.03;;;;;;;9.53;100.00;101062.53;4934661;29;20210;-71
2023/05/02 06:01:23;;;;;;;17.40;5.68;;;;;;;9.51;100.00;101073.41;4916781;29;20092;-71
2023/05/02 06:03:50;;;;;;;9.02;5.20;;;;;;;9.59;100.00;101071.84;4933119;29;20055;-71
2023/05/02 06:06:18;;;;;;;14.13;4.93;;;;;;;9.76;100.00;101074.59;4933405;29;20054;-72
2023/05/02 06:08:44;;;;;;;15.25;6.07;;;;;;;9.79;100.00;101079.66;4932697;29;20059;-72
2023/05/02 06:11:12;;;;;;;11.52;5.75;;;;;;;9.80;100.00;101089.38;4934052;29;20059;-72
2023/05/02 06:13:53;;;;;;;13.52;6.13;;;;;;;9.88;100.00;101091.34;4932857;29;20064;-71
2023/05/02 06:16:20;;;;;;;17.92;6.63;;;;;;;9.96;100.00;101094.13;4934011;29;20104;-72
2023/05/02 06:18:50;;;;;;;17.13;7.30;;;;;;;10.11;100.00;101104.38;4933671;29;20059;-71
2023/05/02 06:21:17;;;;;;;14.20;6.63;;;;;;;10.13;100.00;101102.38;4932290;29;20054;-72
2023/05/02 06:23:44;;;;;;;20.10;8.77;;;;;;;10.07;100.00;101103.00;4932968;29;20116;-71
2023/05/02 06:26:11;;;;;;;18.30;8.02;;;;;;;10.21;100.00;101110.53;4932530;29;20124;-72
2023/05/02 06:28:38;;;;;;;15.00;7.88;;;;;;;10.20;100.00;101116.88;4934187;29;20057;-71
2023/05/02 06:31:05;;;;;;;14.77;7.47;;;;;;;10.20;100.00;101114.19;4933731;29;20067;-72
2023/05/02 06:33:32;;;;;;;16.55;7.72;;;;;;;10.21;100.00;101121.25;4933807;29;20055;-72
2023/05/02 06:35:59;;;;;;;18.83;8.25;;;;;;;10.26;100.00;101119.81;4935834;29;20081;-72
2023/05/02 06:38:27;;;;;;;17.95;8.70;;;;;;;10.41;100.00;101124.66;4933287;29;20064;-72
2023/05/02 06:40:54;;;;;;;18.45;9.52;;;;;;;10.48;100.00;101129.31;4935005;29;20091;-72
2023/05/02 06:43:21;;;;;;;17.88;10.43;;;;;;;10.60;100.00;101126.44;4936481;29;20087;-72
2023/05/02 06:45:47;;;;;;;23.55;10.88;;;;;;;10.69;100.00;101137.13;4937036;29;20074;-72
2023/05/02 06:48:14;;;;;;;21.45;11.77;;;;;;;10.89;100.00;101145.88;4936873;29;20039;-72
2023/05/02 06:50:41;;;;;;;22.85;10.07;;;;;;;11.00;100.00;101155.56;4936752;29;20048;-72
2023/05/02 06:53:07;;;;;;;19.27;10.25;;;;;;;11.34;100.00;101163.75;4937433;29;20068;-74
2023/05/02 06:55:34;;;;;;;23.40;10.77;;;;;;;11.72;100.00;101169.81;4936700;29;20064;-72
2023/05/02 06:58:01;;;;;;;25.05;10.98;;;;;;;11.86;100.00;101182.72;4935757;29;20056;-72
2023/05/02 07:00:27;;;;;;;20.92;10.90;;;;;;;11.57;100.00;101192.84;4936543;29;20032;-72
2023/05/02 07:02:55;;;;;;;16.15;9.43;;;;;;;11.61;100.00;101187.00;4935394;29;20131;-72
2023/05/02 07:05:22;;;;;;;20.35;9.77;;;;;;;11.10;100.00;101193.06;4935837;29;20052;-72
2023/05/02 07:07:49;;;;;;;21.40;9.10;;;;;;;10.96;100.00;101192.63;4936412;29;20040;-72
2023/05/02 07:10:16;;;;;;;17.20;8.45;;;;;;;10.90;100.00;101200.44;4936492;29;20032;-72
2023/05/02 07:12:42;;;;;;;21.10;8.23;;;;;;;10.83;100.00;101196.66;4936038;29;20112;-72
2023/05/02 07:15:09;;;;;;;16.20;8.25;;;;;;;11.01;100.00;101197.53;4937300;29;20144;-72
2023/05/02 07:17:35;;;;;;;14.88;7.18;;;;;;;10.70;100.00;101213.94;4937231;29;20032;-71
2023/05/02 07:20:03;;;;;;;21.50;8.98;;;;;;;10.60;100.00;101207.78;4938696;29;20095;-71
2023/05/02 07:22:30;;;;;;;28.48;9.98;;;;;;;10.71;100.00;101217.47;4939965;29;20068;-71
2023/05/02 07:24:58;;;;;;;18.92;8.60;;;;;;;10.70;100.00;101211.25;4939803;29;20058;-71
2023/05/02 07:27:25;;;;;;;19.42;10.60;;;;;;;10.81;100.00;101212.06;4939691;29;20111;-71
2023/05/02 07:29:51;;;;;;;16.42;10.65;;;;;;;10.59;100.00;101210.63;4922052;29;20063;-71
2023/05/02 07:32:20;;;;;;;13.57;8.02;;;;;;;10.38;100.00;101213.50;4936078;29;20100;-71
2023/05/02 07:34:47;;;;;;;14.23;8.27;;;;;;;10.44;100.00;101215.56;4940132;29;20060;-71
2023/05/02 07:37:14;;;;;;;15.32;8.00;;;;;;;10.58;100.00;101216.97;4931754;29;20111;-72
2023/05/02 07:39:40;;;;;;;11.75;7.68;;;;;;;10.77;100.00;101224.09;4932805;29;20052;-72
2023/05/02 07:42:07;;;;;;;16.75;7.82;;;;;;;10.85;100.00;101226.88;4934186;29;20039;-72
2023/05/02 07:44:34;;;;;;;16.73;7.05;;;;;;;10.70;100.00;101226.53;4919679;29;20052;-72
2023/05/02 07:47:01;;;;;;;19.48;8.55;;;;;;;10.78;100.00;101231.13;4935600;29;20059;-72
2023/05/02 07:49:28;;;;;;;20.20;9.05;;;;;;;10.74;100.00;101233.28;4935916;29;20145;-72
2023/05/02 07:51:55;;;;;;;25.70;9.30;;;;;;;10.62;100.00;101223.75;4935926;29;20048;-72
2023/05/02 07:54:21;;;;;;;18.58;8.73;;;;;;;10.60;100.00;101233.78;4935392;29;20048;-72
2023/05/02 07:56:48;;;;;;;27.75;10.38;;;;;;;10.61;100.00;101233.63;4934420;29;20048;-72
2023/05/02 07:59:14;;;;;;;17.73;8.50;;;;;;;10.43;100.00;101248.75;4935165;29;20058;-71
2023/05/02 08:01:41;;;;;;;18.17;9.05;;;;;;;10.22;100.00;101248.97;4935447;29;20063;-71
2023/05/02 08:04:11;;;;;;;17.65;8.50;;;;;;;10.49;100.00;101248.19;4937741;29;20036;-71
2023/05/02 08:06:38;;;;;;;14.95;7.97;;;;;;;10.57;100.00;101250.16;4931775;29;20056;-71
2023/05/02 08:09:05;;;;;;;14.90;7.63;;;;;;;10.47;100.00;101253.69;4937216;29;20043;-72
2023/05/02 08:11:31;;;;;;;16.88;8.32;;;;;;;10.48;100.00;101252.72;4936777;29;20052;-72
2023/05/02 08:13:58;;;;;;;14.65;8.40;;;;;;;10.59;100.00;101257.06;4934730;29;20050;-71
2023/05/02 08:16:24;;;;;;;18.63;8.68;;;;;;;10.75;100.00;101264.47;4935238;29;20055;-72
2023/05/02 08:18:51;;;;;;;19.38;8.02;;;;;;;10.71;100.00;101269.31;4917402;29;20040;-72
2023/05/02 08:21:17;;;;;;;18.23;8.73;;;;;;;10.62;100.00;101262.16;4934558;29;20068;-72
2023/05/02 08:23:45;;;;;;;13.23;8.23;;;;;;;10.50;100.00;101266.00;4936265;29;20048;-72
2023/05/02 08:26:11;;;;;;;14.63;7.82;;;;;;;10.55;100.00;101271.78;4935686;29;20052;-71
2023/05/02 08:28:38;;;;;;;18.17;7.97;;;;;;;11.11;100.00;101280.72;4935327;29;20071;-72
2023/05/02 08:31:04;;;;;;;19.67;8.20;;;;;;;11.66;100.00;101275.28;4934411;29;20116;-72
2023/05/02 08:33:31;;;;;;;15.13;7.68;;;;;;;11.79;100.00;101281.09;4935038;29;20051;-72
2023/05/02 08:35:57;;;;;;;11.45;6.30;;;;;;;11.89;100.00;101286.38;4934345;29;20052;-72
2023/05/02 08:38:24;;;;;;;11.57;6.30;;;;;;;11.73;100.00;101289.78;4934090;29;20048;-72
2023/05/02 08:40:50;;;;;;;12.50;5.43;;;;;;;11.46;100.00;101288.81;4933844;29;20051;-72
2023/05/02 08:43:17;;;;;;;10.63;5.72;;;;;;;11.42;100.00;101292.81;4935087;29;20071;-72
2023/05/02 08:45:44;;;;;;;7.43;4.65;;;;;;;11.36;100.00;101289.88;4932777;29;20084;-72
2023/05/02 08:48:13;;;;;;;8.13;4.85;;;;;;;11.26;100.00;101295.31;4933302;29;20048;-72
2023/05/02 08:50:43;;;;;;;14.93;6.38;;;;;;;11.37;100.00;101305.00;4935047;29;20141;-72
2023/05/02 08:53:10;;;;;;;10.38;5.85;;;;;;;11.35;100.00;101299.78;4933728;29;20068;-72
2023/05/02 08:55:38;;;;;;;20.45;7.93;;;;;;;11.16;100.00;101300.72;4934808;29;20044;-72
2023/05/02 08:58:07;;;;;;;13.68;4.68;;;;;;;10.92;100.00;101305.81;4932876;29;20076;-72
2023/05/02 09:00:39;;;;;;;12.98;4.70;;;;;;;10.95;100.00;101310.88;4932320;29;20048;-72
2023/05/02 09:03:15;;;;;;;17.17;5.23;;;;;;;10.99;100.00;101313.09;4932564;29;20117;-72
2023/05/02 09:05:41;;;;;;;33.42;7.57;;;;;;;10.82;100.00;101321.09;4932225;29;20047;-72
2023/05/02 09:08:08;;;;;;;17.10;5.45;;;;;;;10.87;100.00;101317.00;4922675;29;20063;-71
2023/05/02 09:10:38;;;;;;;13.25;4.82;;;;;;;10.70;100.00;101329.34;4916557;29;20119;-71
2023/05/02 09:13:39;;;;;;;13.20;5.82;;;;;;;10.91;100.00;101337.19;4907592;29;20048;-71
2023/05/02 09:16:11;;;;;;;7.57;4.82;;;;;;;11.31;100.00;101341.38;4916758;29;20108;-71
2023/05/02 09:18:48;;;;;;;9.13;5.15;;;;;;;11.48;100.00;101341.53;4917925;29;20048;-71
2023/05/02 09:21:19;;;;;;;8.82;3.97;;;;;;;11.33;100.00;101346.59;4917220;29;20108;-71
2023/05/02 09:23:47;;;;;;;15.15;4.68;;;;;;;11.50;100.00;101344.94;4917424;29;20051;-71
2023/05/02 09:26:17;;;;;;;9.23;4.00;;;;;;;11.39;100.00;101351.38;4916480;29;20044;-71
2023/05/02 09:28:45;;;;;;;14.95;4.82;;;;;;;11.12;100.00;101354.91;4917484;29;20071;-71
2023/05/02 09:31:17;;;;;;;13.35;4.07;;;;;;;11.16;100.00;101354.44;4916131;29;20113;-71
2023/05/02 09:34:11;;;;;;;11.13;4.63;;;;;;;11.33;100.00;101355.50;4914636;29;20069;-72
2023/05/02 09:36:40;;;;;;;8.35;4.85;;;;;;;11.29;100.00;101354.09;4915859;29;20060;-72
2023/05/02 09:39:15;;;;;;;10.70;4.72;;;;;;;11.23;100.00;101368.13;4917347;29;20059;-72
2023/05/02 09:41:42;;;;;;;6.47;4.32;;;;;;;11.26;100.00;101359.78;4917052;29;20053;-72
2023/05/02 09:44:15;;;;;;;9.90;4.90;;;;;;;11.23;100.00;101360.91;4916906;29;20230;-72
2023/05/02 09:46:44;;;;;;;8.10;4.00;;;;;;;11.50;100.00;101363.75;4917191;29;20045;-72
2023/05/02 09:49:11;;;;;;;7.95;3.60;;;;;;;11.29;100.00;101372.91;4909189;29;20049;-72
2023/05/02 09:51:38;;;;;;;10.27;4.10;;;;;;;11.08;100.00;101372.31;4906518;29;20037;-72
2023/05/02 09:54:04;;;;;;;10.77;3.92;;;;;;;10.87;100.00;101378.72;4915553;29;20052;-72
2023/05/02 09:56:34;;;;;;;5.53;3.65;;;;;;;10.87;100.00;101386.78;4899939;29;20097;-72
2023/05/02 09:59:15;;;;;;;10.57;4.55;;;;;;;10.82;100.00;101383.66;4916388;29;20052;-72
2023/05/02 10:01:42;;;;;;;11.10;5.00;;;;;;;10.94;100.00;101387.03;4917962;29;20043;-72
2023/05/02 10:04:15;;;;;;;12.07;4.70;;;;;;;10.87;100.00;101384.09;4934809;29;20039;-72
2023/05/02 10:06:47;;;;;;;7.57;4.03;;;;;;;10.77;100.00;101393.19;4935884;29;20060;-72
2023/05/02 10:09:14;;;;;;;8.07;4.47;;;;;;;10.71;100.00;101391.91;4934873;29;20052;-72
2023/05/02 10:11:53;;;;;;;10.18;4.32;;;;;;;10.78;100.00;101397.53;4935009;29;20072;-72
2023/05/02 10:14:22;;;;;;;13.95;5.25;;;;;;;10.66;100.00;101396.88;4934924;29;20044;-72
2023/05/02 10:17:00;;;;;;;9.35;4.03;;;;;;;10.50;100.00;101400.13;4934600;29;20067;-72
2023/05/02 10:19:55;;;;;;;19.23;7.80;;;;;;;10.67;100.00;101410.13;4934178;29;20031;-72
2023/05/02 10:22:22;;;;;;;19.42;7.10;;;;;;;10.68;100.00;101410.97;4924466;29;20050;-72
2023/05/02 10:24:49;;;;;;;13.02;5.78;;;;;;;10.61;100.00;101413.38;4935486;29;20047;-72
2023/05/02 10:27:15;;;;;;;8.52;4.57;;;;;;;10.60;100.00;101411.69;4934022;29;20119;-72
2023/05/02 10:29:43;;;;;;;11.55;4.60;;;;;;;10.50;100.00;101427.81;4934755;29;20052;-72
2023/05/02 10:32:10;;;;;;;7.10;4.30;;;;;;;10.34;100.00;101430.19;4934401;29;20355;-72
2023/05/02 10:34:39;;;;;;;11.30;4.45;;;;;;;10.25;100.00;101441.75;4934884;29;20052;-72
2023/05/02 10:37:05;;;;;;;6.55;4.07;;;;;;;10.27;100.00;101450.53;4934401;29;20056;-72
2023/05/02 10:39:32;;;;;;;6.88;3.35;;;;;;;10.10;100.00;101457.44;4934127;29;20052;-72
2023/05/02 10:42:03;;;;;;;9.40;3.60;;;;;;;10.00;100.00;101457.41;4934067;29;20060;-72
2023/05/02 10:44:38;;;;;;;17.55;4.07;;;;;;;10.02;100.00;101470.66;4934432;29;20060;-72
2023/05/02 10:47:21;;;;;;;8.95;2.85;;;;;;;10.12;100.00;101470.69;4934624;29;20035;-72
2023/05/02 10:49:51;;;;;;;5.55;2.67;;;;;;;9.93;100.00;101471.50;4935227;29;20040;-71
2023/05/02 10:52:35;;;;;;;8.57;2.80;;;;;;;9.82;100.00;101483.19;4925295;29;20135;-71
2023/05/02 10:55:22;;;;;;;4.65;2.35;;;;;;;9.48;100.00;101483.47;4928222;29;20131;-71
2023/05/02 10:58:01;;;;;;;40.22;4.28;;;;;;;9.75;100.00;101490.03;4927503;29;20058;-71
2023/05/02 11:00:29;;;;;;;6.05;2.60;;;;;;;9.91;100.00;101490.38;4916128;29;20549;-72
2023/05/02 11:02:57;;;;;;;7.97;3.67;;;;;;;10.04;100.00;101493.66;4915313;29;20409;-72
2023/05/02 11:05:24;;;;;;;11.98;3.38;;;;;;;10.05;100.00;101502.56;4915868;29;20071;-72
2023/05/02 11:08:19;;;;;;;12.60;4.03;;;;;;;10.23;100.00;101508.09;4917395;29;20072;-72
2023/05/02 11:10:48;;;;;;;10.95;4.35;;;;;;;10.03;100.00;101521.47;4916762;29;20394;-72
2023/05/02 11:13:15;;;;;;;12.88;4.80;;;;;;;9.77;100.00;101521.09;4916626;29;20575;-74
2023/05/02 11:15:41;;;;;;;13.05;4.80;;;;;;;9.86;100.00;101530.16;4915978;29;20517;-72
2023/05/02 11:18:10;;;;;;;14.98;5.18;;;;;;;9.88;100.00;101530.00;4898553;29;20161;-72
2023/05/02 11:20:42;;;;;;;19.55;5.22;;;;;;;9.99;100.00;101529.91;4915962;29;20067;-72
2023/05/02 11:23:20;;;;;;;14.93;4.78;;;;;;;10.06;100.00;101524.84;4915512;29;20067;-72
2023/05/02 11:25:49;;;;;;;15.20;4.90;;;;;;;10.12;100.00;101537.72;4916001;29;20130;-73
2023/05/02 11:28:39;;;;;;;16.77;5.32;;;;;;;10.21;100.00;101539.56;4913781;29;20048;-72
2023/05/02 11:31:28;;;;;;;17.42;4.90;;;;;;;10.24;100.00;101536.63;4915749;29;20131;-72
2023/05/02 11:34:00;;;;;;;18.80;4.20;;;;;;;10.26;100.00;101548.03;4869980;29;20044;-72
2023/05/02 11:36:32;;;;;;;19.63;4.70;;;;;;;10.27;100.00;101550.59;4896957;29;20131;-72
2023/05/02 11:39:04;;;;;;;13.75;4.88;;;;;;;10.30;100.00;101559.34;4897247;29;20470;-72